Time;durP1;ratioP1;P1;durP2;ratioP2;P2;SDS_P1;SDS_P2;PMS_P1;PMS_P2;Temp;Humidity;BMP_temperature;BMP_pressure;BME280_temperature;BME280_humidity;BME280_pressure;Samples;Min_cycle;Max_cycle;Signal;HPM_P1;HPM_P2
2022/03/17 10:11:16;;;;;;;48.47;43.57;;;11.40;99.90;;;;;;5130806;27;20524;-74
2022/03/17 10:13:48;;;;;;;48.37;43.90;;;12.80;99.90;;;;;;5130947;28;20480;-75
2022/03/17 10:16:18;;;;;;;48.17;43.00;;;13.00;99.90;;;;;;5130472;28;20437;-75
2022/03/17 10:18:46;;;;;;;49.47;44.47;;;12.90;99.90;;;;;;5131171;28;20476;-75
2022/03/17 10:21:16;;;;;;;46.60;41.13;;;12.80;99.90;;;;;;5130572;28;20449;-75
2022/03/17 10:23:49;;;;;;;46.50;41.77;;;12.90;99.90;;;;;;5130654;28;20501;-75
2022/03/17 10:26:37;;;;;;;48.20;43.70;;;13.00;99.90;;;;;;5130346;28;20441;-75
2022/03/17 10:29:11;;;;;;;48.63;43.93;;;13.30;99.90;;;;;;5130150;28;20485;-75
2022/03/17 10:31:52;;;;;;;46.13;41.63;;;13.40;99.90;;;;;;5130198;28;20447;-74
2022/03/17 10:34:19;;;;;;;46.00;41.37;;;13.50;99.90;;;;;;5130308;28;20440;-73
2022/03/17 10:36:47;;;;;;;44.57;39.97;;;13.60;99.90;;;;;;5130286;28;21003;-74
2022/03/17 10:39:14;;;;;;;47.97;43.37;;;13.80;99.90;;;;;;5130223;28;20518;-75
2022/03/17 10:41:43;;;;;;;47.57;43.03;;;13.80;99.90;;;;;;5130124;28;20520;-74
2022/03/17 10:44:11;;;;;;;45.57;41.07;;;14.20;99.90;;;;;;5130039;28;20449;-75
2022/03/17 10:46:38;;;;;;;47.00;42.53;;;14.30;99.90;;;;;;5130034;28;20540;-74
2022/03/17 10:49:06;;;;;;;44.27;40.07;;;14.40;99.90;;;;;;5129894;28;20952;-75
2022/03/17 10:51:34;;;;;;;45.53;41.30;;;14.60;99.90;;;;;;5130009;28;20535;-74
2022/03/17 10:54:06;;;;;;;46.77;42.03;;;14.90;99.90;;;;;;5129941;28;20453;-74
2022/03/17 10:56:35;;;;;;;44.97;40.57;;;15.10;99.90;;;;;;5129944;28;20453;-75
2022/03/17 10:59:03;;;;;;;46.77;42.37;;;15.10;99.90;;;;;;5129931;28;20840;-75
2022/03/17 11:01:42;;;;;;;46.60;42.10;;;14.90;99.90;;;;;;5129574;28;20559;-75
2022/03/17 11:04:10;;;;;;;49.23;44.37;;;15.00;99.90;;;;;;5129593;28;20444;-75
2022/03/17 11:06:38;;;;;;;46.17;41.67;;;15.40;99.90;;;;;;5129644;28;20457;-75
2022/03/17 11:09:08;;;;;;;45.30;40.80;;;15.40;99.90;;;;;;5129246;28;20491;-75
2022/03/17 11:11:35;;;;;;;46.70;41.90;;;15.30;99.90;;;;;;5118756;28;20522;-76
2022/03/17 11:14:04;;;;;;;46.17;41.47;;;15.30;99.90;;;;;;5116043;28;20503;-75
2022/03/17 11:16:36;;;;;;;46.67;41.60;;;15.10;99.90;;;;;;5115905;28;20986;-75
2022/03/17 11:19:04;;;;;;;44.60;40.10;;;14.90;99.90;;;;;;5115915;28;20442;-76
2022/03/17 11:21:31;;;;;;;43.00;38.83;;;14.90;99.90;;;;;;5115817;28;20454;-74
2022/03/17 11:24:04;;;;;;;45.70;41.57;;;15.00;99.90;;;;;;5115829;28;20452;-76
2022/03/17 11:26:35;;;;;;;42.40;38.17;;;14.70;99.90;;;;;;5115666;28;20461;-76
2022/03/17 11:29:07;;;;;;;44.03;39.57;;;14.60;99.90;;;;;;5115548;28;20567;-75
2022/03/17 11:31:58;;;;;;;44.57;39.77;;;14.40;99.90;;;;;;5115563;28;20446;-75
2022/03/17 11:34:48;;;;;;;43.50;39.00;;;14.50;99.90;;;;;;5115633;28;20441;-76
2022/03/17 11:37:24;;;;;;;43.67;39.47;;;14.40;99.90;;;;;;5115456;28;20441;-75
2022/03/17 11:39:51;;;;;;;49.07;41.73;;;14.20;99.90;;;;;;5115544;28;20498;-76
2022/03/17 11:42:46;;;;;;;44.53;38.83;;;14.20;99.90;;;;;;5115620;28;20453;-73
2022/03/17 11:45:41;;;;;;;43.80;39.40;;;14.20;99.90;;;;;;5115446;28;20553;-74
2022/03/17 11:48:13;;;;;;;43.93;39.20;;;14.30;99.90;;;;;;5115213;28;20945;-75
2022/03/17 11:50:48;;;;;;;48.00;40.20;;;14.50;99.90;;;;;;5115379;28;20482;-74
2022/03/17 11:53:38;;;;;;;44.93;40.40;;;14.30;99.90;;;;;;5115207;28;20452;-75
2022/03/17 11:56:06;;;;;;;46.77;41.87;;;14.10;99.90;;;;;;5115215;28;20541;-74
2022/03/17 11:58:42;;;;;;;46.33;41.67;;;14.10;99.90;;;;;;5115144;28;20446;-74
2022/03/17 12:01:12;;;;;;;43.27;39.07;;;14.00;99.90;;;;;;5115109;28;20560;-75
2022/03/17 12:03:42;;;;;;;51.53;42.23;;;14.00;99.90;;;;;;5115177;28;20445;-77
2022/03/17 12:06:14;;;;;;;45.83;41.40;;;13.90;99.90;;;;;;5115043;28;20449;-75
2022/03/17 12:08:49;;;;;;;46.23;41.63;;;14.00;99.90;;;;;;5115134;28;20449;-76
2022/03/17 12:11:17;;;;;;;44.80;40.10;;;14.00;99.90;;;;;;5115032;28;20567;-75
2022/03/17 12:14:21;;;;;;;43.97;39.20;;;14.00;99.90;;;;;;5114849;28;20479;-75
2022/03/17 12:16:52;;;;;;;51.93;42.50;;;13.80;99.90;;;;;;5114933;28;20463;-76
2022/03/17 12:19:26;;;;;;;45.00;40.47;;;13.60;99.90;;;;;;5114730;28;20532;-74
2022/03/17 12:22:10;;;;;;;50.83;45.20;;;13.60;99.90;;;;;;5114308;28;20583;-76
2022/03/17 12:24:40;;;;;;;47.60;42.47;;;13.20;99.90;;;;;;5114655;28;20473;-76
2022/03/17 12:27:11;;;;;;;49.27;43.67;;;13.10;99.90;;;;;;5114775;28;20878;-75
2022/03/17 12:29:38;;;;;;;54.90;44.23;;;13.00;99.90;;;;;;5114713;28;20517;-76
2022/03/17 12:32:10;;;;;;;48.80;43.47;;;13.10;99.90;;;;;;5114413;28;20861;-76
2022/03/17 12:34:37;;;;;;;47.93;42.87;;;13.00;99.90;;;;;;5114597;28;20446;-76
2022/03/17 12:37:05;;;;;;;46.43;41.53;;;13.10;99.90;;;;;;5114446;28;20452;-76
2022/03/17 12:39:33;;;;;;;46.53;41.77;;;13.20;99.90;;;;;;5114354;28;20956;-75
2022/03/17 12:42:01;;;;;;;44.70;39.03;;;13.40;99.90;;;;;;5114243;28;20457;-75
2022/03/17 12:44:29;;;;;;;48.00;42.27;;;13.50;99.90;;;;;;5114281;28;20851;-76
2022/03/17 12:46:56;;;;;;;46.90;41.90;;;13.60;99.90;;;;;;5113950;28;20446;-75
2022/03/17 12:49:24;;;;;;;46.13;41.50;;;13.90;99.90;;;;;;5114040;28;20533;-75
2022/03/17 12:51:51;;;;;;;44.27;39.67;;;14.10;99.90;;;;;;5114120;28;20442;-75
2022/03/17 12:54:19;;;;;;;44.17;39.70;;;14.20;99.90;;;;;;5113907;28;20446;-75
2022/03/17 12:56:53;;;;;;;44.73;40.33;;;14.10;99.90;;;;;;5113931;28;20449;-75
2022/03/17 12:59:20;;;;;;;47.00;42.67;;;14.00;99.90;;;;;;5113813;28;20453;-75
2022/03/17 13:01:48;;;;;;;45.40;40.50;;;13.90;99.90;;;;;;5113699;28;20469;-75
2022/03/17 13:04:15;;;;;;;44.73;40.10;;;13.90;99.90;;;;;;5113751;28;20471;-75
2022/03/17 13:06:55;;;;;;;43.37;39.03;;;13.90;99.90;;;;;;5113747;28;20445;-75
2022/03/17 13:09:28;;;;;;;45.90;40.90;;;14.20;99.90;;;;;;5113541;28;20534;-75
2022/03/17 13:14:47;;;;;;;43.90;39.40;;;14.30;99.90;;;;;;5113776;28;20425;-75
2022/03/17 13:17:14;;;;;;;46.60;41.80;;;14.40;99.90;;;;;;5113594;28;20528;-76
2022/03/17 13:19:44;;;;;;;42.00;37.80;;;14.20;99.90;;;;;;5113398;28;20438;-75
2022/03/17 13:22:12;;;;;;;44.90;40.33;;;14.20;99.90;;;;;;5113552;28;20530;-76
2022/03/17 13:24:40;;;;;;;41.77;37.57;;;14.10;99.90;;;;;;5113410;28;20852;-76
2022/03/17 13:27:07;;;;;;;46.63;41.80;;;14.20;99.90;;;;;;5113471;28;20997;-76
2022/03/17 13:29:35;;;;;;;44.20;39.67;;;14.50;99.90;;;;;;5113352;28;20465;-75
2022/03/17 13:32:04;;;;;;;45.73;40.67;;;14.50;99.90;;;;;;5113914;28;20810;-76
2022/03/17 13:34:33;;;;;;;45.47;41.07;;;14.20;99.90;;;;;;5113121;28;20454;-75
2022/03/17 13:37:02;;;;;;;43.60;39.50;;;14.30;99.90;;;;;;5113398;28;20526;-75
2022/03/17 13:39:33;;;;;;;46.53;41.70;;;14.10;99.90;;;;;;5113860;28;20603;-75
2022/03/17 13:42:03;;;;;;;44.30;39.90;;;14.00;99.90;;;;;;5113570;28;20470;-76
2022/03/17 13:44:43;;;;;;;46.77;41.40;;;13.70;99.90;;;;;;5113496;28;20546;-76
2022/03/17 13:47:15;;;;;;;48.10;42.90;;;13.60;99.90;;;;;;5114737;28;20453;-76
2022/03/17 13:49:42;;;;;;;43.97;39.47;;;13.40;99.90;;;;;;5115941;28;20450;-76
2022/03/17 13:52:11;;;;;;;43.77;39.47;;;13.20;99.90;;;;;;5117713;28;20510;-76
2022/03/17 13:54:43;;;;;;;43.60;39.37;;;13.00;99.90;;;;;;5117123;28;20449;-76
2022/03/17 13:57:09;;;;;;;46.07;41.53;;;13.00;99.90;;;;;;5115949;28;20519;-76
2022/03/17 13:59:36;;;;;;;45.23;40.63;;;12.90;99.90;;;;;;5118200;28;20445;-76
2022/03/17 14:02:14;;;;;;;50.53;41.80;;;13.10;99.90;;;;;;5113432;28;20526;-75
2022/03/17 14:04:53;;;;;;;46.47;41.60;;;13.20;99.90;;;;;;5113170;28;20449;-75
2022/03/17 14:07:20;;;;;;;46.87;41.70;;;13.30;99.90;;;;;;5112817;28;20979;-76
2022/03/17 14:09:48;;;;;;;47.73;42.57;;;13.20;99.90;;;;;;5112872;28;20571;-75
2022/03/17 14:12:15;;;;;;;43.23;38.77;;;13.20;99.90;;;;;;5112880;28;20454;-76
2022/03/17 14:14:42;;;;;;;42.67;38.43;;;12.90;99.90;;;;;;5112971;28;20453;-75
2022/03/17 14:17:10;;;;;;;45.17;40.57;;;12.80;99.90;;;;;;5112826;28;20502;-75
2022/03/17 14:19:37;;;;;;;44.73;40.13;;;12.90;99.90;;;;;;5112757;28;20445;-76
2022/03/17 14:24:49;;;;;;;43.70;39.13;;;12.70;99.90;;;;;;5112723;28;20429;-75
2022/03/17 14:27:16;;;;;;;44.47;40.07;;;12.60;99.90;;;;;;5112680;28;20506;-76
2022/03/17 14:29:43;;;;;;;48.23;41.67;;;12.50;99.90;;;;;;5112464;28;20458;-75
2022/03/17 14:32:09;;;;;;;43.50;39.30;;;12.30;99.90;;;;;;5112632;28;20445;-75
2022/03/17 14:34:36;;;;;;;44.17;39.57;;;12.30;99.90;;;;;;5112654;28;20453;-75
2022/03/17 14:37:03;;;;;;;44.50;39.90;;;12.30;99.90;;;;;;5112521;28;20445;-75
2022/03/17 14:39:30;;;;;;;45.43;40.70;;;12.30;99.90;;;;;;5112731;28;20449;-75
2022/03/17 14:41:58;;;;;;;47.37;42.27;;;12.10;99.90;;;;;;5112518;28;20440;-75
2022/03/17 14:44:25;;;;;;;44.50;40.20;;;12.20;99.90;;;;;;5112664;28;20449;-75
2022/03/17 14:46:52;;;;;;;45.43;40.97;;;12.20;99.90;;;;;;5115185;28;20475;-76
2022/03/17 14:49:19;;;;;;;44.33;40.07;;;12.30;99.90;;;;;;5116372;28;20472;-76
2022/03/17 14:51:45;;;;;;;44.23;39.70;;;12.30;99.90;;;;;;5116377;28;20492;-75
2022/03/17 14:54:12;;;;;;;43.27;38.93;;;12.30;99.90;;;;;;5116307;28;20445;-75
2022/03/17 14:56:39;;;;;;;47.10;42.30;;;12.30;99.90;;;;;;5116267;28;20453;-75
2022/03/17 14:59:07;;;;;;;44.03;39.83;;;12.20;99.90;;;;;;5116137;28;20543;-75
2022/03/17 15:01:34;;;;;;;46.73;41.63;;;12.10;99.90;;;;;;5115862;28;20476;-75
2022/03/17 15:04:00;;;;;;;43.70;39.30;;;12.10;99.90;;;;;;5116049;28;20453;-75
2022/03/17 15:06:27;;;;;;;47.20;42.57;;;12.10;99.90;;;;;;5116059;28;20455;-74
2022/03/17 15:08:54;;;;;;;44.80;40.10;;;12.10;99.90;;;;;;5115924;28;20984;-75
2022/03/17 15:11:22;;;;;;;47.07;40.73;;;12.10;99.90;;;;;;5115946;28;20488;-76
2022/03/17 15:13:50;;;;;;;47.53;42.83;;;12.00;99.90;;;;;;5115921;28;20514;-75
2022/03/17 15:16:18;;;;;;;47.47;42.77;;;12.00;99.90;;;;;;5115793;28;20450;-75
2022/03/17 15:18:45;;;;;;;44.90;40.30;;;12.00;99.90;;;;;;5115800;28;20456;-74
2022/03/17 15:21:12;;;;;;;46.30;40.77;;;12.00;99.90;;;;;;5115845;28;20444;-75
2022/03/17 15:23:39;;;;;;;45.90;41.43;;;12.10;99.90;;;;;;5115903;28;20483;-74
2022/03/17 15:26:06;;;;;;;47.17;42.47;;;12.10;99.90;;;;;;5115695;28;20456;-75
2022/03/17 15:31:19;;;;;;;45.57;41.07;;;12.10;99.90;;;;;;5115486;28;21008;-75
2022/03/17 15:33:47;;;;;;;46.27;41.50;;;12.20;99.90;;;;;;5115532;28;20448;-74
2022/03/17 15:36:14;;;;;;;46.10;41.67;;;12.10;99.90;;;;;;5115511;28;20453;-74
2022/03/17 15:38:41;;;;;;;49.77;41.87;;;12.20;99.90;;;;;;5115307;28;20445;-75
2022/03/17 15:41:08;;;;;;;46.03;41.53;;;12.30;99.90;;;;;;5115429;28;20450;-76
2022/03/17 15:43:37;;;;;;;47.33;42.43;;;12.40;99.90;;;;;;5115250;28;20873;-77
2022/03/17 15:46:04;;;;;;;47.77;42.60;;;12.40;99.90;;;;;;5115293;28;20536;-75
2022/03/17 15:48:32;;;;;;;49.60;44.63;;;12.30;99.90;;;;;;5115499;28;20805;-77
2022/03/17 15:50:59;;;;;;;45.23;40.63;;;12.30;99.90;;;;;;5115112;28;20537;-75
2022/03/17 15:53:25;;;;;;;47.73;42.73;;;12.20;99.90;;;;;;5115092;28;20446;-75
2022/03/17 15:55:54;;;;;;;46.57;41.77;;;12.10;99.90;;;;;;5115134;28;20531;-76
2022/03/17 15:58:20;;;;;;;48.13;43.17;;;12.00;99.90;;;;;;5115074;28;20510;-75
2022/03/17 16:00:47;;;;;;;47.90;43.10;;;11.90;99.90;;;;;;5114739;28;20474;-75
2022/03/17 16:03:15;;;;;;;51.63;46.03;;;11.80;99.90;;;;;;5114690;28;20953;-75
2022/03/17 16:05:43;;;;;;;51.57;46.23;;;11.70;99.90;;;;;;5114769;28;20507;-74
2022/03/17 16:08:10;;;;;;;50.90;45.60;;;11.60;99.90;;;;;;5114672;28;20453;-73
2022/03/17 16:16:07;;;;;;;48.80;43.60;;;11.50;99.90;;;;;;5114849;28;20429;-76
2022/03/17 16:18:34;;;;;;;51.13;44.10;;;11.60;99.90;;;;;;5114551;28;20723;-76
2022/03/17 16:21:03;;;;;;;46.47;41.87;;;11.70;99.90;;;;;;5114610;28;20537;-76
2022/03/17 16:23:34;;;;;;;46.67;41.97;;;11.70;99.90;;;;;;5114610;28;20454;-76
2022/03/17 16:26:01;;;;;;;47.60;43.00;;;11.80;99.90;;;;;;5114455;28;20448;-76
2022/03/17 16:28:28;;;;;;;47.13;42.07;;;11.90;99.90;;;;;;5114200;28;20535;-76
2022/03/17 16:30:55;;;;;;;46.17;41.50;;;11.90;99.90;;;;;;5114307;28;20572;-76
2022/03/17 16:33:23;;;;;;;47.73;43.00;;;11.90;99.90;;;;;;5114399;28;20815;-75
2022/03/17 16:35:50;;;;;;;48.57;43.77;;;11.90;99.90;;;;;;5114355;28;20442;-76
2022/03/17 16:38:19;;;;;;;47.03;42.20;;;11.80;99.90;;;;;;5114400;28;20442;-76
2022/03/17 16:40:45;;;;;;;44.53;40.23;;;11.80;99.90;;;;;;5114209;28;20964;-73
2022/03/17 16:43:13;;;;;;;47.20;42.60;;;11.90;99.90;;;;;;5114039;28;20457;-75
2022/03/17 16:45:41;;;;;;;48.07;43.10;;;11.90;99.90;;;;;;5114008;28;20472;-75
2022/03/17 16:48:08;;;;;;;46.87;42.20;;;12.00;99.90;;;;;;5113944;28;20460;-75
2022/03/17 16:50:35;;;;;;;45.20;40.47;;;12.00;99.90;;;;;;5113991;28;20492;-76
2022/03/17 16:53:03;;;;;;;48.33;43.43;;;11.90;99.90;;;;;;5113951;28;20537;-76
2022/03/17 16:55:32;;;;;;;48.70;43.50;;;11.90;99.90;;;;;;5113961;28;20796;-76
2022/03/17 16:58:00;;;;;;;50.70;42.97;;;11.90;99.90;;;;;;5113961;28;20875;-75
2022/03/17 17:00:28;;;;;;;47.77;43.03;;;11.80;99.90;;;;;;5113977;28;20450;-77
2022/03/17 17:02:55;;;;;;;49.90;44.90;;;11.80;99.90;;;;;;5113883;28;20445;-76
2022/03/17 17:05:22;;;;;;;47.33;42.50;;;11.80;99.90;;;;;;5114001;28;20452;-76
2022/03/17 17:07:50;;;;;;;48.57;43.77;;;11.80;99.90;;;;;;5114196;28;20449;-77
2022/03/17 17:10:18;;;;;;;52.73;44.43;;;11.80;99.90;;;;;;5113534;28;20499;-75
2022/03/17 17:12:47;;;;;;;49.30;44.07;;;11.80;99.90;;;;;;5114347;28;20539;-75
2022/03/17 17:15:13;;;;;;;48.77;43.77;;;11.80;99.90;;;;;;5113678;28;20522;-74
2022/03/17 17:17:41;;;;;;;47.23;42.70;;;11.70;99.90;;;;;;5113758;28;20530;-75
2022/03/17 17:20:10;;;;;;;50.80;45.27;;;11.80;99.90;;;;;;5113457;28;20449;-75
2022/03/17 17:30:40;;;;;;;48.00;43.30;;;11.80;99.90;;;;;;5113435;28;20453;-74
2022/03/17 17:30:58;;;;;;;47.23;42.57;;;11.80;99.90;;;;;;5113331;28;20479;-75
2022/03/17 17:33:25;;;;;;;47.27;42.30;;;11.70;99.90;;;;;;5113101;28;20478;-75
2022/03/17 17:35:52;;;;;;;49.23;44.43;;;11.80;99.90;;;;;;5113326;28;20454;-75
2022/03/17 17:38:19;;;;;;;47.53;42.93;;;11.70;99.90;;;;;;5113091;28;20446;-74
2022/03/17 17:40:46;;;;;;;53.40;47.60;;;11.60;99.90;;;;;;5113447;28;20455;-75
2022/03/17 17:43:14;;;;;;;47.57;42.87;;;11.60;99.90;;;;;;5113176;28;20452;-75
2022/03/17 17:45:42;;;;;;;46.17;41.17;;;11.60;99.90;;;;;;5113164;28;20445;-74
2022/03/17 17:48:09;;;;;;;46.63;41.93;;;11.60;99.90;;;;;;5113028;28;20482;-75
2022/03/17 17:50:36;;;;;;;45.00;39.00;;;11.50;99.90;;;;;;5113201;28;20487;-73
2022/03/17 17:53:04;;;;;;;41.53;37.60;;;11.40;99.90;;;;;;5112983;28;20477;-76
2022/03/17 17:55:32;;;;;;;47.90;42.10;;;11.40;99.90;;;;;;5112947;28;20450;-74
2022/03/17 17:57:59;;;;;;;44.33;39.70;;;11.30;99.90;;;;;;5113081;28;20445;-74
